createdAt,value
2022-07-25T00:02:07.384Z,22.20
2022-07-25T00:05:37.630Z,22.10
2022-07-25T00:09:02.088Z,22.20
2022-07-25T00:12:27.486Z,22.10
2022-07-25T00:15:52.151Z,22.10
2022-07-25T00:19:16.484Z,22.10
2022-07-25T00:22:41.144Z,22.00
2022-07-25T00:26:05.373Z,22.00
2022-07-25T00:29:30.632Z,21.80
2022-07-25T00:32:54.447Z,21.70
2022-07-25T00:36:19.168Z,21.60
2022-07-25T00:39:43.082Z,21.50
2022-07-25T00:43:07.295Z,21.50
2022-07-25T00:46:32.562Z,21.40
2022-07-25T00:49:57.213Z,21.40
2022-07-25T00:53:21.134Z,21.50
2022-07-25T00:56:48.699Z,21.50
2022-07-25T01:00:15.652Z,21.50
2022-07-25T01:03:40.929Z,21.50
2022-07-25T01:07:05.242Z,21.40
2022-07-25T01:10:30.843Z,21.40
2022-07-25T01:13:56.973Z,21.30
2022-07-25T01:17:21.281Z,21.30
2022-07-25T01:20:46.807Z,21.30
2022-07-25T01:24:11.426Z,21.20
2022-07-25T01:27:35.135Z,21.20
2022-07-25T01:30:59.047Z,21.20
2022-07-25T01:34:22.822Z,21.10
2022-07-25T01:37:47.884Z,21.10
2022-07-25T01:41:11.570Z,20.90
2022-07-25T01:44:45.835Z,20.90
2022-07-25T01:48:09.536Z,20.80
2022-07-25T01:51:33.373Z,20.80
2022-07-25T01:54:59.006Z,20.80
2022-07-25T01:58:22.785Z,20.80
2022-07-25T02:01:46.700Z,20.80
2022-07-25T02:05:11.499Z,20.80
2022-07-25T02:08:35.996Z,20.80
2022-07-25T02:12:01.022Z,20.70
2022-07-25T02:15:24.778Z,20.70
2022-07-25T02:18:48.504Z,20.60
2022-07-25T02:22:12.269Z,20.60
2022-07-25T02:25:36.660Z,20.50
2022-07-25T02:29:01.807Z,20.50
2022-07-25T02:32:25.431Z,20.50
2022-07-25T02:35:50.259Z,20.50
2022-07-25T02:39:14.153Z,20.50
2022-07-25T02:42:38.009Z,20.40
2022-07-25T02:46:03.700Z,20.40
2022-07-25T02:49:27.621Z,20.40
2022-07-25T02:52:51.319Z,20.40
2022-07-25T02:56:15.373Z,20.30
2022-07-25T02:59:40.212Z,20.30
2022-07-25T03:03:05.474Z,20.40
2022-07-25T03:06:29.207Z,20.30
2022-07-25T03:09:52.942Z,20.30
2022-07-25T03:13:17.139Z,20.30
2022-07-25T03:16:40.824Z,20.30
2022-07-25T03:20:07.904Z,20.30
2022-07-25T03:23:31.575Z,20.30
2022-07-25T03:26:56.089Z,20.30
2022-07-25T03:30:19.856Z,20.30
2022-07-25T03:33:43.562Z,20.30
2022-07-25T03:37:11.526Z,20.30
2022-07-25T03:40:36.517Z,20.20
2022-07-25T03:44:00.371Z,20.20
2022-07-25T03:47:24.065Z,20.30
2022-07-25T03:50:47.818Z,20.30
2022-07-25T03:54:16.604Z,20.30
2022-07-25T03:57:40.893Z,20.30
2022-07-25T04:01:06.189Z,20.30
2022-07-25T04:04:34.833Z,20.30
2022-07-25T04:07:59.454Z,20.30
2022-07-25T04:11:24.837Z,20.40
2022-07-25T04:14:48.571Z,20.50
2022-07-25T04:18:13.718Z,20.50
2022-07-25T04:21:42.513Z,20.70
2022-07-25T04:25:07.330Z,20.70
2022-07-25T04:28:33.138Z,20.80
2022-07-25T04:31:58.033Z,20.90
2022-07-25T04:35:22.065Z,20.90
2022-07-25T04:38:45.900Z,21.00
2022-07-25T04:42:09.677Z,21.10
2022-07-25T04:45:35.206Z,21.20
2022-07-25T04:48:59.098Z,21.50
2022-07-25T04:52:22.968Z,21.80
2022-07-25T04:55:46.654Z,22.10
2022-07-25T04:59:10.718Z,22.40
2022-07-25T05:02:36.454Z,22.80
2022-07-25T05:06:00.245Z,23.10
2022-07-25T05:09:24.134Z,23.50
2022-07-25T05:12:47.925Z,23.80
2022-07-25T05:16:11.679Z,24.10
2022-07-25T05:19:37.084Z,24.70
2022-07-25T05:23:00.800Z,25.60
2022-07-25T05:26:24.425Z,26.60
2022-07-25T05:29:48.157Z,27.60
2022-07-25T05:33:11.822Z,27.80
2022-07-25T05:36:36.873Z,28.30
2022-07-25T05:40:00.611Z,28.30
2022-07-25T05:43:24.295Z,28.60
2022-07-25T05:46:48.030Z,28.60
2022-07-25T05:50:11.925Z,29.70
2022-07-25T05:53:37.323Z,29.50
2022-07-25T05:57:01.142Z,29.30
2022-07-25T06:00:24.968Z,28.40
2022-07-25T06:03:50.737Z,28.80
2022-07-25T06:07:16.660Z,28.50
2022-07-25T06:10:42.698Z,29.40
2022-07-25T06:14:07.204Z,30.00
2022-07-25T06:17:33.328Z,29.70
2022-07-25T06:20:57.131Z,29.60
2022-07-25T06:24:20.881Z,29.40
2022-07-25T06:27:46.104Z,30.00
2022-07-25T06:31:10.064Z,29.90
2022-07-25T06:34:33.812Z,30.20
2022-07-25T06:37:57.484Z,29.20
2022-07-25T06:41:21.215Z,29.70
2022-07-25T06:44:46.233Z,30.20
2022-07-25T06:48:10.017Z,29.30
2022-07-25T06:51:33.804Z,29.30
2022-07-25T06:54:57.909Z,29.90
2022-07-25T06:58:22.814Z,29.90
2022-07-25T07:01:51.680Z,30.20
2022-07-25T07:05:15.590Z,30.90
2022-07-25T07:08:39.899Z,29.80
2022-07-25T07:12:04.047Z,29.90
2022-07-25T07:15:27.810Z,29.60
2022-07-25T07:18:52.840Z,29.90
2022-07-25T07:22:16.491Z,30.90
2022-07-25T07:25:40.226Z,30.70
2022-07-25T07:29:07.337Z,33.10
2022-07-25T07:32:31.239Z,34.10
2022-07-25T07:35:57.044Z,35.40
2022-07-25T07:39:20.853Z,36.20
2022-07-25T07:42:46.698Z,35.60
2022-07-25T07:46:10.505Z,34.50
2022-07-25T07:49:37.111Z,34.10
2022-07-25T07:53:02.608Z,35.70
2022-07-25T07:56:26.309Z,37.10
2022-07-25T07:59:50.022Z,38.30
2022-07-25T08:03:14.423Z,39.20
2022-07-25T08:06:38.119Z,39.90
2022-07-25T08:10:03.182Z,40.40
2022-07-25T08:13:30.567Z,40.90
2022-07-25T08:16:57.050Z,40.20
2022-07-25T08:20:39.230Z,39.90
2022-07-25T08:24:03.177Z,40.40
2022-07-25T08:27:29.227Z,41.00
2022-07-25T08:30:53.029Z,41.40
2022-07-25T08:34:16.892Z,42.00
2022-07-25T08:37:40.596Z,42.10
2022-07-25T08:41:05.240Z,40.40
2022-07-25T08:44:34.510Z,40.10
2022-07-25T08:47:58.399Z,37.30
2022-07-25T08:51:22.458Z,36.10
2022-07-25T08:54:46.951Z,36.50
2022-07-25T08:58:12.711Z,35.60
2022-07-25T09:01:41.135Z,35.20
2022-07-25T09:05:06.012Z,35.70
2022-07-25T09:08:29.656Z,36.10
2022-07-25T09:11:53.272Z,36.70
2022-07-25T09:15:24.657Z,36.70
2022-07-25T09:18:50.421Z,37.80
2022-07-25T09:22:14.529Z,38.30
2022-07-25T09:25:38.857Z,36.80
2022-07-25T09:29:02.637Z,36.30
2022-07-25T09:32:26.392Z,36.80
2022-07-25T09:35:52.052Z,37.10
2022-07-25T09:39:16.992Z,35.90
2022-07-25T09:42:42.718Z,36.00
2022-07-25T09:46:07.092Z,35.80
2022-07-25T09:49:41.372Z,35.40
2022-07-25T09:53:06.541Z,34.20
2022-07-25T09:56:30.918Z,34.30
2022-07-25T09:59:56.090Z,34.20
2022-07-25T10:03:27.457Z,34.30
2022-07-25T10:06:58.677Z,34.10
2022-07-25T10:10:28.768Z,34.00
2022-07-25T10:13:53.556Z,33.60
2022-07-25T10:17:22.272Z,33.40
2022-07-25T10:20:47.101Z,33.40
2022-07-25T10:24:11.917Z,33.20
2022-07-25T10:27:44.470Z,32.90
2022-07-25T10:31:19.375Z,32.90
2022-07-25T10:34:53.732Z,33.00
2022-07-25T10:38:25.631Z,33.50
2022-07-25T10:41:52.725Z,34.20
2022-07-25T10:45:19.591Z,34.60
2022-07-25T10:48:45.474Z,35.10
2022-07-25T10:52:15.517Z,35.90
2022-07-25T10:55:39.545Z,36.90
2022-07-25T10:59:04.519Z,38.20
2022-07-25T11:02:32.563Z,39.00
2022-07-25T11:05:56.265Z,39.00
2022-07-25T11:09:26.646Z,38.70
2022-07-25T11:12:51.301Z,37.80
2022-07-25T11:16:15.186Z,36.70
2022-07-25T11:19:40.825Z,34.70
2022-07-25T11:23:04.437Z,34.10
2022-07-25T11:26:28.078Z,34.20
2022-07-25T11:29:52.145Z,34.60
2022-07-25T11:33:17.738Z,34.60
2022-07-25T11:36:43.211Z,33.70
2022-07-25T11:40:08.605Z,33.10
2022-07-25T11:43:32.633Z,33.40
2022-07-25T11:46:59.638Z,33.80
2022-07-25T11:50:31.401Z,34.10
2022-07-25T11:53:56.522Z,33.70
2022-07-25T11:57:24.322Z,33.30
2022-07-25T12:00:51.070Z,33.10
2022-07-25T12:04:17.220Z,33.00
2022-07-25T12:07:44.500Z,33.00
2022-07-25T12:11:20.724Z,32.60
2022-07-25T12:14:45.047Z,32.80
2022-07-25T12:18:10.579Z,33.20
2022-07-25T12:21:34.231Z,33.60
2022-07-25T12:24:57.910Z,33.60
2022-07-25T12:28:23.117Z,33.70
2022-07-25T12:31:46.733Z,33.60
2022-07-25T12:35:13.036Z,33.60
2022-07-25T12:38:37.998Z,33.30
2022-07-25T12:42:01.674Z,33.30
2022-07-25T12:45:27.781Z,32.80
2022-07-25T12:48:51.744Z,33.00
2022-07-25T12:52:15.728Z,32.70
2022-07-25T12:55:39.416Z,32.50
2022-07-25T12:59:03.877Z,32.40
2022-07-25T13:02:29.273Z,32.40
2022-07-25T13:05:53.035Z,32.10
2022-07-25T13:09:16.751Z,32.20
2022-07-25T13:12:40.464Z,32.20
2022-07-25T13:16:04.318Z,32.10
2022-07-25T13:19:29.414Z,32.10
2022-07-25T13:22:53.257Z,32.00
2022-07-25T13:26:16.990Z,32.10
2022-07-25T13:29:40.907Z,32.40
2022-07-25T13:33:07.299Z,31.80
2022-07-25T13:36:33.114Z,31.50
2022-07-25T13:39:56.768Z,31.30
2022-07-25T13:43:20.579Z,31.50
2022-07-25T13:46:46.348Z,31.80
2022-07-25T13:50:10.970Z,32.30
2022-07-25T13:53:36.010Z,32.40
2022-07-25T13:56:59.807Z,32.70
2022-07-25T14:00:23.728Z,32.40
2022-07-25T14:03:47.725Z,32.60
2022-07-25T14:07:11.353Z,32.30
2022-07-25T14:10:36.779Z,32.20
2022-07-25T14:14:00.421Z,32.10
2022-07-25T14:17:28.383Z,31.90
2022-07-25T14:20:55.148Z,31.80
2022-07-25T14:24:18.787Z,31.70
2022-07-25T14:27:45.066Z,31.50
2022-07-25T14:31:08.955Z,31.30
2022-07-25T14:34:32.682Z,31.20
2022-07-25T14:37:56.419Z,31.10
2022-07-25T14:41:20.091Z,31.10
2022-07-25T14:44:45.151Z,31.00
2022-07-25T14:48:08.763Z,31.00
2022-07-25T14:51:32.949Z,31.10
2022-07-25T14:54:56.635Z,31.30
2022-07-25T14:58:20.322Z,31.10
2022-07-25T15:01:45.476Z,31.00
2022-07-25T15:05:09.738Z,31.00
2022-07-25T15:08:33.894Z,31.00
2022-07-25T15:11:57.739Z,31.10
2022-07-25T15:15:21.527Z,31.00
2022-07-25T15:19:14.525Z,30.70
2022-07-25T15:22:30.401Z,30.70
2022-07-25T15:26:01.910Z,30.50
2022-07-25T15:29:27.767Z,30.60
2022-07-25T15:32:51.472Z,30.30
2022-07-25T15:36:16.601Z,30.20
2022-07-25T15:39:40.244Z,30.10
2022-07-25T15:43:03.953Z,29.80
2022-07-25T15:46:28.895Z,29.60
2022-07-25T15:49:52.740Z,29.40
2022-07-25T15:53:17.995Z,29.60
2022-07-25T15:56:41.789Z,29.60
2022-07-25T16:00:07.519Z,29.60
2022-07-25T16:03:31.739Z,29.80
2022-07-25T16:06:55.635Z,29.80
2022-07-25T16:10:20.875Z,29.50
2022-07-25T16:13:44.886Z,29.30
2022-07-25T16:17:08.575Z,29.50
2022-07-25T16:20:34.936Z,29.40
2022-07-25T16:23:58.612Z,29.20
2022-07-25T16:27:25.742Z,29.00
2022-07-25T16:30:50.658Z,28.70
2022-07-25T16:34:14.383Z,28.40
2022-07-25T16:37:38.167Z,28.30
2022-07-25T16:41:07.184Z,28.00
